Big Bear Station Historical Data
Daily Summary for September 1, 2017 Units:  English    Metric   Both
« Previous Day
Next Day »
Daily Weekly Monthly Yearly Custom
  High: Low: Average:
Temperature: 84.6 °F 50.5 °F 66 °F
Dew Point: 52.9 °F 40.3 °F 46.4 °F
Humidity: 90 % 24 % 55 %
Wind Speed: 6.3 mph 0.0 mph 1.4 mph
Wind Gust: -999.0 mph - -
Wind:- - SW
Pressure: 30.31 in 30.26 in -
Precipitation: 0.00 in    
Historical Graphs
 
 
Tabular Data for September 1, 2017
Time Temperature Dew Point Pressure Wind Wind Speed Wind Gust Humidity Rainfall Rate (Hourly)
00:04 57.4 °F 50.9 °F 30.28 in Calm   -999.0 mph 79 % 0 in
00:19 57.0 °F 51.2 °F 30.28 in Calm   -999.0 mph 81 % 0 in
00:35 56.3 °F 50.9 °F 30.28 in Calm   -999.0 mph 82 % 0 in
00:50 56.1 °F 50.7 °F 30.28 in Calm   -999.0 mph 82 % 0 in
01:05 55.6 °F 50.2 °F 30.28 in Calm   -999.0 mph 82 % 0 in
01:20 55.2 °F 49.5 °F 30.28 in Calm   -999.0 mph 81 % 0 in
01:35 54.5 °F 49.1 °F 30.28 in Calm   -999.0 mph 82 % 0 in
01:51 54.3 °F 48.9 °F 30.27 in Calm   -999.0 mph 82 % 0 in
02:06 54.3 °F 49.2 °F 30.28 in SSE 2.7 mph -999.0 mph 83 % 0 in
02:21 54.3 °F 49.2 °F 30.28 in SSE 3.7 mph -999.0 mph 83 % 0 in
02:36 54.7 °F 48.7 °F 30.27 in SSE 1.7 mph -999.0 mph 80 % 0 in
02:52 55.0 °F 47.6 °F 30.28 in ESE 2.2 mph -999.0 mph 76 % 0 in
03:07 55.8 °F 47.3 °F 30.27 in South 2.2 mph -999.0 mph 73 % 0 in
03:22 55.2 °F 47.4 °F 30.28 in SSE 2.2 mph -999.0 mph 75 % 0 in
03:37 54.9 °F 47.8 °F 30.28 in Calm   -999.0 mph 77 % 0 in
03:52 54.0 °F 47.3 °F 30.28 in Calm   -999.0 mph 78 % 0 in
04:08 53.2 °F 47.5 °F 30.28 in South 1.1 mph -999.0 mph 81 % 0 in
04:23 52.9 °F 48.2 °F 30.28 in Calm   -999.0 mph 84 % 0 in
04:38 52.5 °F 48.1 °F 30.28 in South 2.2 mph -999.0 mph 85 % 0 in
04:53 52.3 °F 48.2 °F 30.28 in Calm   -999.0 mph 86 % 0 in
05:08 51.8 °F 47.7 °F 30.28 in Calm   -999.0 mph 86 % 0 in
05:24 51.6 °F 47.5 °F 30.28 in Calm   -999.0 mph 86 % 0 in
05:39 51.1 °F 47.1 °F 30.28 in Calm   -999.0 mph 86 % 0 in
05:54 50.9 °F 46.9 °F 30.28 in Calm   -999.0 mph 86 % 0 in
06:09 50.5 °F 46.8 °F 30.29 in Calm   -999.0 mph 87 % 0 in
06:24 50.7 °F 47.3 °F 30.29 in Calm   -999.0 mph 88 % 0 in
06:40 50.7 °F 47.6 °F 30.29 in Calm   -999.0 mph 89 % 0 in
06:55 50.5 °F 47.7 °F 30.29 in Calm   -999.0 mph 90 % 0 in
07:10 50.9 °F 47.8 °F 30.30 in Calm   -999.0 mph 89 % 0 in
07:25 50.9 °F 47.8 °F 30.30 in Calm   -999.0 mph 89 % 0 in
07:41 52.5 °F 49.0 °F 30.30 in Calm   -999.0 mph 88 % 0 in
07:56 52.3 °F 49.5 °F 30.30 in Calm   -999.0 mph 90 % 0 in
08:11 53.2 °F 50.3 °F 30.30 in Calm   -999.0 mph 90 % 0 in
08:26 54.3 °F 50.8 °F 30.30 in Calm   -999.0 mph 88 % 0 in
08:41 56.7 °F 52.9 °F 30.30 in Calm   -999.0 mph 87 % 0 in
08:57 58.8 °F 52.6 °F 30.30 in Calm   -999.0 mph 80 % 0 in
09:12 61.2 °F 52.8 °F 30.30 in NNW 2.2 mph -999.0 mph 74 % 0 in
09:27 63.1 °F 52.4 °F 30.30 in ESE 1.7 mph -999.0 mph 68 % 0 in
09:42 65.8 °F 49.7 °F 30.31 in NNE 1.7 mph -999.0 mph 56 % 0 in
09:57 68.5 °F 48.6 °F 30.31 in WNW 1.7 mph -999.0 mph 49 % 0 in
10:13 70.9 °F 49.1 °F 30.30 in East 1.7 mph -999.0 mph 46 % 0 in
10:28 72.9 °F 47.8 °F 30.31 in NNW 4.7 mph -999.0 mph 41 % 0 in
10:43 74.7 °F 48.8 °F 30.31 in NNW 2.2 mph -999.0 mph 40 % 0 in
10:58 76.5 °F 49.0 °F 30.31 in NW 3.7 mph -999.0 mph 38 % 0 in
11:13 76.8 °F 47.8 °F 30.31 in NNW 2.2 mph -999.0 mph 36 % 0 in
11:29 78.3 °F 48.4 °F 30.31 in ENE 2.2 mph -999.0 mph 35 % 0 in
11:44 79.2 °F 48.4 °F 30.31 in NNW 3.2 mph -999.0 mph 34 % 0 in
11:59 80.1 °F 47.6 °F 30.31 in NW 5.3 mph -999.0 mph 32 % 0 in
12:15 80.4 °F 47.9 °F 30.30 in ENE 3.2 mph -999.0 mph 32 % 0 in
12:30 81.3 °F 48.6 °F 30.30 in WNW 3.2 mph -999.0 mph 32 % 0 in
12:45 81.7 °F 47.3 °F 30.30 in West 4.2 mph -999.0 mph 30 % 0 in
13:00 82.4 °F 45.1 °F 30.29 in NNE 5.3 mph -999.0 mph 27 % 0 in
13:15 81.5 °F 46.2 °F 30.29 in NNW 2.7 mph -999.0 mph 29 % 0 in
13:31 82.0 °F 45.7 °F 30.29 in ENE 2.7 mph -999.0 mph 28 % 0 in
13:46 83.3 °F 46.8 °F 30.28 in WNW 2.7 mph -999.0 mph 28 % 0 in
14:01 83.3 °F 44.8 °F 30.28 in West 2.7 mph -999.0 mph 26 % 0 in
14:17 84.6 °F 46.9 °F 30.28 in NW 4.7 mph -999.0 mph 27 % 0 in
14:32 84.2 °F 44.6 °F 30.28 in SSW 5.3 mph -999.0 mph 25 % 0 in
14:47 83.7 °F 46.2 °F 30.27 in North 5.3 mph -999.0 mph 27 % 0 in
15:02 82.8 °F 44.4 °F 30.27 in SSE 2.2 mph -999.0 mph 26 % 0 in
15:18 82.6 °F 45.2 °F 30.27 in SE 3.7 mph -999.0 mph 27 % 0 in
15:33 81.7 °F 44.5 °F 30.26 in North 3.2 mph -999.0 mph 27 % 0 in
15:48 82.0 °F 44.7 °F 30.26 in NW 2.7 mph -999.0 mph 27 % 0 in
16:03 81.7 °F 42.5 °F 30.26 in ESE 2.7 mph -999.0 mph 25 % 0 in
16:19 81.7 °F 44.5 °F 30.26 in NNW 2.7 mph -999.0 mph 27 % 0 in
16:34 84.2 °F 44.6 °F 30.26 in SE 1.7 mph -999.0 mph 25 % 0 in
16:49 84.0 °F 43.3 °F 30.26 in SSW 2.2 mph -999.0 mph 24 % 0 in
17:04 84.6 °F 43.8 °F 30.26 in NNW 6.3 mph -999.0 mph 24 % 0 in
17:19 83.3 °F 44.8 °F 30.26 in WNW 4.7 mph -999.0 mph 26 % 0 in
17:35 84.6 °F 45.9 °F 30.26 in NW 1.7 mph -999.0 mph 26 % 0 in
17:50 83.8 °F 44.2 °F 30.26 in East 2.7 mph -999.0 mph 25 % 0 in
18:05 82.0 °F 42.7 °F 30.26 in South 2.2 mph -999.0 mph 25 % 0 in
18:20 79.2 °F 43.3 °F 30.26 in Calm   -999.0 mph 28 % 0 in
18:35 76.1 °F 41.5 °F 30.26 in Calm   -999.0 mph 29 % 0 in
18:51 73.9 °F 41.4 °F 30.26 in South 1.1 mph -999.0 mph 31 % 0 in
19:06 71.4 °F 41.6 °F 30.26 in Calm   -999.0 mph 34 % 0 in
19:21 70.0 °F 40.3 °F 30.26 in Calm   -999.0 mph 34 % 0 in
19:36 68.5 °F 40.5 °F 30.27 in Calm   -999.0 mph 36 % 0 in
19:51 67.6 °F 41.8 °F 30.27 in Calm   -999.0 mph 39 % 0 in
20:07 66.4 °F 42.6 °F 30.28 in Calm   -999.0 mph 42 % 0 in
20:22 65.5 °F 42.4 °F 30.28 in Calm   -999.0 mph 43 % 0 in
20:37 64.4 °F 41.4 °F 30.28 in Calm   -999.0 mph 43 % 0 in
20:52 63.5 °F 42.3 °F 30.28 in Calm   -999.0 mph 46 % 0 in
21:07 62.6 °F 43.7 °F 30.29 in Calm   -999.0 mph 50 % 0 in
21:23 62.1 °F 44.8 °F 30.29 in Calm   -999.0 mph 53 % 0 in
21:38 61.3 °F 45.0 °F 30.29 in Calm   -999.0 mph 55 % 0 in
21:53 60.6 °F 43.4 °F 30.29 in Calm   -999.0 mph 53 % 0 in
22:08 60.1 °F 41.4 °F 30.30 in Calm   -999.0 mph 50 % 0 in
22:24 59.7 °F 41.5 °F 30.30 in Calm   -999.0 mph 51 % 0 in
22:39 59.0 °F 41.4 °F 30.30 in Calm   -999.0 mph 52 % 0 in
22:54 58.5 °F 42.4 °F 30.30 in Calm   -999.0 mph 55 % 0 in
23:09 57.9 °F 42.3 °F 30.30 in Calm   -999.0 mph 56 % 0 in
23:24 57.6 °F 42.9 °F 30.30 in Calm   -999.0 mph 58 % 0 in
23:40 57.4 °F 44.1 °F 30.29 in Calm   -999.0 mph 61 % 0 in
23:55 56.8 °F 43.1 °F 30.30 in Calm   -999.0 mph 60 % 0 in
Big Bear CA Weather
Compliments of Weather Underground - 1.5 mb